sensor_id;sensor_type;location;lat;lon;timestamp;P1;durP1;ratioP1;P2;durP2;ratioP2
66593;SDS011;53450;42.584;23.366;2023-06-10T00:02:03;9.30;;;5.55;;
66593;SDS011;53450;42.584;23.366;2023-06-10T00:04:29;8.48;;;5.70;;
66593;SDS011;53450;42.584;23.366;2023-06-10T00:06:55;6.80;;;6.07;;
66593;SDS011;53450;42.584;23.366;2023-06-10T00:09:20;8.02;;;6.55;;
66593;SDS011;53450;42.584;23.366;2023-06-10T00:11:48;7.97;;;6.28;;
66593;SDS011;53450;42.584;23.366;2023-06-10T00:14:14;6.28;;;5.65;;
66593;SDS011;53450;42.584;23.366;2023-06-10T00:17:05;9.35;;;6.65;;
66593;SDS011;53450;42.584;23.366;2023-06-10T00:19:59;6.78;;;5.60;;
66593;SDS011;53450;42.584;23.366;2023-06-10T00:22:25;6.47;;;5.85;;
66593;SDS011;53450;42.584;23.366;2023-06-10T00:24:54;7.88;;;6.15;;
66593;SDS011;53450;42.584;23.366;2023-06-10T00:27:21;9.70;;;7.05;;
66593;SDS011;53450;42.584;23.366;2023-06-10T00:29:47;9.90;;;8.82;;
66593;SDS011;53450;42.584;23.366;2023-06-10T00:32:38;13.25;;;8.75;;
66593;SDS011;53450;42.584;23.366;2023-06-10T00:35:04;16.08;;;9.30;;
66593;SDS011;53450;42.584;23.366;2023-06-10T00:37:31;11.30;;;8.27;;
66593;SDS011;53450;42.584;23.366;2023-06-10T00:40:00;20.00;;;9.10;;
66593;SDS011;53450;42.584;23.366;2023-06-10T00:42:25;11.82;;;9.50;;
66593;SDS011;53450;42.584;23.366;2023-06-10T00:44:51;19.48;;;11.43;;
66593;SDS011;53450;42.584;23.366;2023-06-10T00:47:16;13.52;;;10.98;;
66593;SDS011;53450;42.584;23.366;2023-06-10T00:49:43;15.43;;;11.45;;
66593;SDS011;53450;42.584;23.366;2023-06-10T00:52:10;20.63;;;13.55;;
66593;SDS011;53450;42.584;23.366;2023-06-10T00:54:37;16.80;;;13.30;;
66593;SDS011;53450;42.584;23.366;2023-06-10T00:57:04;17.83;;;12.68;;
66593;SDS011;53450;42.584;23.366;2023-06-10T00:59:29;15.15;;;11.48;;
66593;SDS011;53450;42.584;23.366;2023-06-10T01:01:56;16.45;;;12.20;;
66593;SDS011;53450;42.584;23.366;2023-06-10T01:04:22;17.35;;;12.57;;
66593;SDS011;53450;42.584;23.366;2023-06-10T01:10:17;16.55;;;12.15;;
66593;SDS011;53450;42.584;23.366;2023-06-10T01:13:05;13.77;;;10.50;;
66593;SDS011;53450;42.584;23.366;2023-06-10T01:15:34;19.38;;;10.18;;
66593;SDS011;53450;42.584;23.366;2023-06-10T01:18:07;12.60;;;9.50;;
66593;SDS011;53450;42.584;23.366;2023-06-10T01:20:40;10.40;;;9.35;;
66593;SDS011;53450;42.584;23.366;2023-06-10T01:23:08;13.27;;;8.93;;
66593;SDS011;53450;42.584;23.366;2023-06-10T01:25:39;18.63;;;10.13;;
66593;SDS011;53450;42.584;23.366;2023-06-10T01:30:59;16.33;;;11.77;;
66593;SDS011;53450;42.584;23.366;2023-06-10T01:33:28;16.13;;;12.02;;
66593;SDS011;53450;42.584;23.366;2023-06-10T01:35:57;25.77;;;12.75;;
66593;SDS011;53450;42.584;23.366;2023-06-10T01:38:24;15.65;;;10.65;;
66593;SDS011;53450;42.584;23.366;2023-06-10T01:40:52;14.02;;;10.85;;
66593;SDS011;53450;42.584;23.366;2023-06-10T01:43:20;12.90;;;10.32;;
66593;SDS011;53450;42.584;23.366;2023-06-10T01:45:46;14.15;;;9.70;;
66593;SDS011;53450;42.584;23.366;2023-06-10T01:48:11;17.85;;;11.38;;
66593;SDS011;53450;42.584;23.366;2023-06-10T01:50:37;15.55;;;11.45;;
66593;SDS011;53450;42.584;23.366;2023-06-10T01:53:03;14.48;;;10.55;;
66593;SDS011;53450;42.584;23.366;2023-06-10T01:55:30;13.05;;;10.43;;
66593;SDS011;53450;42.584;23.366;2023-06-10T01:57:56;13.82;;;9.70;;
66593;SDS011;53450;42.584;23.366;2023-06-10T02:00:22;17.40;;;9.15;;
66593;SDS011;53450;42.584;23.366;2023-06-10T02:03:13;8.70;;;7.83;;
66593;SDS011;53450;42.584;23.366;2023-06-10T02:06:04;14.63;;;9.40;;
66593;SDS011;53450;42.584;23.366;2023-06-10T02:08:30;13.13;;;8.77;;
66593;SDS011;53450;42.584;23.366;2023-06-10T02:10:59;11.48;;;8.85;;
66593;SDS011;53450;42.584;23.366;2023-06-10T02:13:27;11.65;;;9.20;;
66593;SDS011;53450;42.584;23.366;2023-06-10T02:15:53;12.07;;;9.23;;
66593;SDS011;53450;42.584;23.366;2023-06-10T02:18:44;13.07;;;8.82;;
66593;SDS011;53450;42.584;23.366;2023-06-10T02:21:13;12.50;;;9.27;;
66593;SDS011;53450;42.584;23.366;2023-06-10T02:23:39;14.43;;;9.05;;
66593;SDS011;53450;42.584;23.366;2023-06-10T02:26:05;10.82;;;8.80;;
66593;SDS011;53450;42.584;23.366;2023-06-10T02:28:31;13.07;;;9.68;;
66593;SDS011;53450;42.584;23.366;2023-06-10T02:30:58;10.80;;;9.27;;
66593;SDS011;53450;42.584;23.366;2023-06-10T02:33:25;11.98;;;9.60;;
66593;SDS011;53450;42.584;23.366;2023-06-10T02:35:50;15.13;;;8.77;;
66593;SDS011;53450;42.584;23.366;2023-06-10T02:38:16;20.05;;;10.88;;
66593;SDS011;53450;42.584;23.366;2023-06-10T02:41:06;14.60;;;7.50;;
66593;SDS011;53450;42.584;23.366;2023-06-10T02:43:57;14.77;;;7.82;;
66593;SDS011;53450;42.584;23.366;2023-06-10T02:46:23;12.25;;;8.10;;
66593;SDS011;53450;42.584;23.366;2023-06-10T02:48:50;10.68;;;8.35;;
66593;SDS011;53450;42.584;23.366;2023-06-10T02:51:20;10.73;;;8.52;;
66593;SDS011;53450;42.584;23.366;2023-06-10T02:53:48;10.98;;;8.45;;
66593;SDS011;53450;42.584;23.366;2023-06-10T02:56:16;12.70;;;9.13;;
66593;SDS011;53450;42.584;23.366;2023-06-10T02:58:42;14.50;;;8.88;;
66593;SDS011;53450;42.584;23.366;2023-06-10T03:01:09;17.70;;;9.95;;
66593;SDS011;53450;42.584;23.366;2023-06-10T03:03:53;16.00;;;8.95;;
66593;SDS011;53450;42.584;23.366;2023-06-10T03:06:21;17.67;;;9.65;;
66593;SDS011;53450;42.584;23.366;2023-06-10T03:08:49;11.52;;;8.25;;
66593;SDS011;53450;42.584;23.366;2023-06-10T03:11:17;14.43;;;7.88;;
66593;SDS011;53450;42.584;23.366;2023-06-10T03:13:45;16.13;;;8.55;;
66593;SDS011;53450;42.584;23.366;2023-06-10T03:16:14;10.85;;;7.18;;
66593;SDS011;53450;42.584;23.366;2023-06-10T03:18:41;11.43;;;7.43;;
66593;SDS011;53450;42.584;23.366;2023-06-10T03:21:07;8.50;;;7.10;;
66593;SDS011;53450;42.584;23.366;2023-06-10T03:23:34;13.57;;;7.75;;
66593;SDS011;53450;42.584;23.366;2023-06-10T03:26:00;12.63;;;7.63;;
66593;SDS011;53450;42.584;23.366;2023-06-10T03:28:28;11.50;;;7.65;;
66593;SDS011;53450;42.584;23.366;2023-06-10T03:30:53;9.95;;;7.20;;
66593;SDS011;53450;42.584;23.366;2023-06-10T03:33:22;8.88;;;6.72;;
66593;SDS011;53450;42.584;23.366;2023-06-10T03:35:48;10.43;;;6.65;;
66593;SDS011;53450;42.584;23.366;2023-06-10T03:38:14;8.32;;;6.22;;
66593;SDS011;53450;42.584;23.366;2023-06-10T03:40:39;10.65;;;5.10;;
66593;SDS011;53450;42.584;23.366;2023-06-10T03:43:06;7.07;;;6.18;;
66593;SDS011;53450;42.584;23.366;2023-06-10T03:45:31;10.90;;;6.60;;
66593;SDS011;53450;42.584;23.366;2023-06-10T03:47:57;11.50;;;6.85;;
66593;SDS011;53450;42.584;23.366;2023-06-10T03:50:29;9.48;;;6.82;;
66593;SDS011;53450;42.584;23.366;2023-06-10T03:52:55;8.40;;;6.18;;
66593;SDS011;53450;42.584;23.366;2023-06-10T03:55:24;10.25;;;5.80;;
66593;SDS011;53450;42.584;23.366;2023-06-10T03:57:50;8.23;;;5.82;;
66593;SDS011;53450;42.584;23.366;2023-06-10T04:00:20;9.20;;;6.28;;
66593;SDS011;53450;42.584;23.366;2023-06-10T04:02:47;5.68;;;4.90;;
66593;SDS011;53450;42.584;23.366;2023-06-10T04:05:23;8.63;;;5.00;;
66593;SDS011;53450;42.584;23.366;2023-06-10T04:08:14;10.00;;;5.35;;
66593;SDS011;53450;42.584;23.366;2023-06-10T04:11:04;5.70;;;5.10;;
66593;SDS011;53450;42.584;23.366;2023-06-10T04:13:30;8.48;;;5.90;;
66593;SDS011;53450;42.584;23.366;2023-06-10T04:15:58;6.10;;;5.38;;
66593;SDS011;53450;42.584;23.366;2023-06-10T04:18:24;8.20;;;6.35;;
66593;SDS011;53450;42.584;23.366;2023-06-10T04:20:53;8.07;;;6.13;;
66593;SDS011;53450;42.584;23.366;2023-06-10T04:23:19;7.68;;;6.03;;
66593;SDS011;53450;42.584;23.366;2023-06-10T04:25:45;7.88;;;6.30;;
66593;SDS011;53450;42.584;23.366;2023-06-10T04:28:12;10.43;;;6.15;;
66593;SDS011;53450;42.584;23.366;2023-06-10T04:30:37;9.00;;;6.15;;
66593;SDS011;53450;42.584;23.366;2023-06-10T04:33:04;7.25;;;6.05;;
66593;SDS011;53450;42.584;23.366;2023-06-10T04:35:34;9.98;;;6.28;;
66593;SDS011;53450;42.584;23.366;2023-06-10T04:38:02;9.95;;;6.47;;
66593;SDS011;53450;42.584;23.366;2023-06-10T04:40:29;9.73;;;6.35;;
66593;SDS011;53450;42.584;23.366;2023-06-10T04:42:55;7.97;;;5.95;;
66593;SDS011;53450;42.584;23.366;2023-06-10T04:45:20;6.15;;;5.45;;
66593;SDS011;53450;42.584;23.366;2023-06-10T04:47:46;9.50;;;6.03;;
66593;SDS011;53450;42.584;23.366;2023-06-10T04:50:12;8.00;;;6.43;;
66593;SDS011;53450;42.584;23.366;2023-06-10T04:52:38;9.38;;;6.03;;
66593;SDS011;53450;42.584;23.366;2023-06-10T04:55:05;7.05;;;5.80;;
66593;SDS011;53450;42.584;23.366;2023-06-10T04:57:31;11.45;;;6.50;;
66593;SDS011;53450;42.584;23.366;2023-06-10T04:59:56;8.23;;;6.50;;
66593;SDS011;53450;42.584;23.366;2023-06-10T05:02:22;7.18;;;6.45;;
66593;SDS011;53450;42.584;23.366;2023-06-10T05:04:47;7.43;;;6.72;;
66593;SDS011;53450;42.584;23.366;2023-06-10T05:07:13;9.80;;;6.72;;
66593;SDS011;53450;42.584;23.366;2023-06-10T05:09:38;6.78;;;6.15;;
66593;SDS011;53450;42.584;23.366;2023-06-10T05:12:04;13.75;;;7.00;;
66593;SDS011;53450;42.584;23.366;2023-06-10T05:14:30;7.95;;;6.60;;
66593;SDS011;53450;42.584;23.366;2023-06-10T05:16:56;7.68;;;6.30;;
66593;SDS011;53450;42.584;23.366;2023-06-10T05:19:22;9.10;;;7.53;;
66593;SDS011;53450;42.584;23.366;2023-06-10T05:21:47;10.32;;;7.40;;
66593;SDS011;53450;42.584;23.366;2023-06-10T05:24:13;8.82;;;6.95;;
66593;SDS011;53450;42.584;23.366;2023-06-10T05:26:39;7.60;;;6.88;;
66593;SDS011;53450;42.584;23.366;2023-06-10T05:29:06;7.07;;;5.93;;
66593;SDS011;53450;42.584;23.366;2023-06-10T05:31:33;8.05;;;7.03;;
66593;SDS011;53450;42.584;23.366;2023-06-10T05:33:58;15.10;;;6.65;;
66593;SDS011;53450;42.584;23.366;2023-06-10T05:36:24;8.93;;;6.25;;
66593;SDS011;53450;42.584;23.366;2023-06-10T05:38:52;10.13;;;6.53;;
66593;SDS011;53450;42.584;23.366;2023-06-10T05:41:18;7.63;;;6.60;;
66593;SDS011;53450;42.584;23.366;2023-06-10T05:43:44;8.13;;;6.32;;
66593;SDS011;53450;42.584;23.366;2023-06-10T05:46:09;6.75;;;6.00;;
66593;SDS011;53450;42.584;23.366;2023-06-10T05:48:35;7.00;;;5.80;;
66593;SDS011;53450;42.584;23.366;2023-06-10T05:51:01;10.32;;;6.57;;
66593;SDS011;53450;42.584;23.366;2023-06-10T05:53:26;7.35;;;6.65;;
66593;SDS011;53450;42.584;23.366;2023-06-10T05:56:18;6.53;;;5.93;;
66593;SDS011;53450;42.584;23.366;2023-06-10T05:59:09;22.40;;;14.20;;
66593;SDS011;53450;42.584;23.366;2023-06-10T06:01:35;9.18;;;7.22;;
66593;SDS011;53450;42.584;23.366;2023-06-10T06:04:01;9.25;;;6.20;;
66593;SDS011;53450;42.584;23.366;2023-06-10T06:06:26;6.53;;;5.50;;
66593;SDS011;53450;42.584;23.366;2023-06-10T06:08:52;9.27;;;6.13;;
66593;SDS011;53450;42.584;23.366;2023-06-10T06:11:18;8.63;;;7.57;;
66593;SDS011;53450;42.584;23.366;2023-06-10T06:13:43;10.55;;;7.13;;
66593;SDS011;53450;42.584;23.366;2023-06-10T06:16:09;10.45;;;8.77;;
66593;SDS011;53450;42.584;23.366;2023-06-10T06:18:34;14.57;;;9.43;;
66593;SDS011;53450;42.584;23.366;2023-06-10T06:21:00;16.70;;;9.63;;
66593;SDS011;53450;42.584;23.366;2023-06-10T06:23:25;12.60;;;9.90;;
66593;SDS011;53450;42.584;23.366;2023-06-10T06:25:51;17.08;;;11.13;;
66593;SDS011;53450;42.584;23.366;2023-06-10T06:28:16;15.00;;;11.85;;
66593;SDS011;53450;42.584;23.366;2023-06-10T06:30:44;17.75;;;12.80;;
66593;SDS011;53450;42.584;23.366;2023-06-10T06:33:10;17.63;;;12.88;;
66593;SDS011;53450;42.584;23.366;2023-06-10T06:35:35;15.57;;;12.75;;
66593;SDS011;53450;42.584;23.366;2023-06-10T06:38:03;18.35;;;12.30;;
66593;SDS011;53450;42.584;23.366;2023-06-10T06:40:29;17.52;;;12.65;;
66593;SDS011;53450;42.584;23.366;2023-06-10T06:42:55;20.77;;;12.80;;
66593;SDS011;53450;42.584;23.366;2023-06-10T06:45:41;15.82;;;12.38;;
66593;SDS011;53450;42.584;23.366;2023-06-10T06:48:32;15.35;;;12.85;;
66593;SDS011;53450;42.584;23.366;2023-06-10T06:51:01;15.00;;;12.82;;
66593;SDS011;53450;42.584;23.366;2023-06-10T06:53:27;21.25;;;15.10;;
66593;SDS011;53450;42.584;23.366;2023-06-10T06:55:53;21.88;;;15.57;;
66593;SDS011;53450;42.584;23.366;2023-06-10T06:58:18;20.45;;;17.05;;
66593;SDS011;53450;42.584;23.366;2023-06-10T07:00:44;26.13;;;18.70;;
66593;SDS011;53450;42.584;23.366;2023-06-10T07:03:10;20.40;;;17.08;;
66593;SDS011;53450;42.584;23.366;2023-06-10T07:05:35;21.95;;;17.80;;
66593;SDS011;53450;42.584;23.366;2023-06-10T07:08:01;18.35;;;13.68;;
66593;SDS011;53450;42.584;23.366;2023-06-10T07:10:27;18.48;;;14.27;;
66593;SDS011;53450;42.584;23.366;2023-06-10T07:12:53;14.90;;;12.70;;
66593;SDS011;53450;42.584;23.366;2023-06-10T07:15:19;23.20;;;13.68;;
66593;SDS011;53450;42.584;23.366;2023-06-10T07:17:45;13.68;;;10.63;;
66593;SDS011;53450;42.584;23.366;2023-06-10T07:20:35;13.73;;;10.65;;
66593;SDS011;53450;42.584;23.366;2023-06-10T07:23:26;13.55;;;10.23;;
66593;SDS011;53450;42.584;23.366;2023-06-10T07:25:51;15.20;;;10.73;;
66593;SDS011;53450;42.584;23.366;2023-06-10T07:28:17;11.27;;;10.18;;
66593;SDS011;53450;42.584;23.366;2023-06-10T07:30:43;16.25;;;10.15;;
66593;SDS011;53450;42.584;23.366;2023-06-10T07:33:08;16.33;;;9.90;;
66593;SDS011;53450;42.584;23.366;2023-06-10T07:35:35;11.50;;;10.10;;
66593;SDS011;53450;42.584;23.366;2023-06-10T07:38:01;13.57;;;10.40;;
66593;SDS011;53450;42.584;23.366;2023-06-10T07:40:26;14.13;;;9.68;;
66593;SDS011;53450;42.584;23.366;2023-06-10T07:42:52;22.10;;;10.73;;
66593;SDS011;53450;42.584;23.366;2023-06-10T07:45:18;18.20;;;10.93;;
66593;SDS011;53450;42.584;23.366;2023-06-10T07:47:43;17.25;;;11.05;;
66593;SDS011;53450;42.584;23.366;2023-06-10T07:50:10;23.73;;;10.20;;
66593;SDS011;53450;42.584;23.366;2023-06-10T07:52:35;18.35;;;10.32;;
66593;SDS011;53450;42.584;23.366;2023-06-10T07:55:01;18.40;;;11.98;;
66593;SDS011;53450;42.584;23.366;2023-06-10T07:57:26;12.25;;;9.95;;
66593;SDS011;53450;42.584;23.366;2023-06-10T07:59:52;12.85;;;9.80;;
66593;SDS011;53450;42.584;23.366;2023-06-10T08:02:18;16.83;;;7.70;;
66593;SDS011;53450;42.584;23.366;2023-06-10T08:04:43;14.32;;;7.40;;
66593;SDS011;53450;42.584;23.366;2023-06-10T08:07:09;12.65;;;5.38;;
66593;SDS011;53450;42.584;23.366;2023-06-10T08:09:34;9.52;;;6.22;;
66593;SDS011;53450;42.584;23.366;2023-06-10T08:12:00;7.65;;;5.13;;
66593;SDS011;53450;42.584;23.366;2023-06-10T08:14:26;7.63;;;4.60;;
66593;SDS011;53450;42.584;23.366;2023-06-10T08:16:51;25.27;;;5.10;;
66593;SDS011;53450;42.584;23.366;2023-06-10T08:19:17;9.63;;;4.95;;
66593;SDS011;53450;42.584;23.366;2023-06-10T08:21:42;13.18;;;5.57;;
66593;SDS011;53450;42.584;23.366;2023-06-10T08:24:08;9.60;;;5.32;;
66593;SDS011;53450;42.584;23.366;2023-06-10T08:26:35;12.68;;;5.07;;
66593;SDS011;53450;42.584;23.366;2023-06-10T08:29:00;8.13;;;6.10;;
66593;SDS011;53450;42.584;23.366;2023-06-10T08:31:26;6.20;;;5.47;;
66593;SDS011;53450;42.584;23.366;2023-06-10T08:33:52;18.00;;;6.70;;
66593;SDS011;53450;42.584;23.366;2023-06-10T08:36:17;11.02;;;7.10;;
66593;SDS011;53450;42.584;23.366;2023-06-10T08:38:43;13.55;;;10.15;;
66593;SDS011;53450;42.584;23.366;2023-06-10T08:41:08;9.18;;;5.70;;
66593;SDS011;53450;42.584;23.366;2023-06-10T08:43:43;7.38;;;5.28;;
66593;SDS011;53450;42.584;23.366;2023-06-10T08:46:11;6.93;;;5.72;;
66593;SDS011;53450;42.584;23.366;2023-06-10T08:48:43;6.88;;;4.95;;
66593;SDS011;53450;42.584;23.366;2023-06-10T08:51:10;7.68;;;4.05;;
66593;SDS011;53450;42.584;23.366;2023-06-10T08:53:36;8.60;;;4.70;;
66593;SDS011;53450;42.584;23.366;2023-06-10T08:56:03;6.65;;;3.78;;
66593;SDS011;53450;42.584;23.366;2023-06-10T08:58:31;8.10;;;3.97;;
66593;SDS011;53450;42.584;23.366;2023-06-10T09:00:58;4.03;;;3.05;;
66593;SDS011;53450;42.584;23.366;2023-06-10T09:03:25;4.40;;;3.17;;
66593;SDS011;53450;42.584;23.366;2023-06-10T09:06:17;8.02;;;4.82;;
66593;SDS011;53450;42.584;23.366;2023-06-10T09:09:08;6.40;;;4.72;;
66593;SDS011;53450;42.584;23.366;2023-06-10T09:11:34;16.45;;;4.95;;
66593;SDS011;53450;42.584;23.366;2023-06-10T09:13:59;7.60;;;4.80;;
66593;SDS011;53450;42.584;23.366;2023-06-10T09:16:25;12.25;;;4.50;;
66593;SDS011;53450;42.584;23.366;2023-06-10T09:18:51;3.90;;;3.40;;
66593;SDS011;53450;42.584;23.366;2023-06-10T09:21:23;4.03;;;3.20;;
66593;SDS011;53450;42.584;23.366;2023-06-10T09:23:49;24.23;;;5.07;;
66593;SDS011;53450;42.584;23.366;2023-06-10T09:26:15;12.77;;;3.67;;
66593;SDS011;53450;42.584;23.366;2023-06-10T09:28:43;6.10;;;3.67;;
66593;SDS011;53450;42.584;23.366;2023-06-10T09:31:11;15.65;;;3.47;;
66593;SDS011;53450;42.584;23.366;2023-06-10T09:33:37;10.50;;;3.10;;
66593;SDS011;53450;42.584;23.366;2023-06-10T09:36:07;5.47;;;2.80;;
66593;SDS011;53450;42.584;23.366;2023-06-10T09:38:33;4.38;;;3.00;;
66593;SDS011;53450;42.584;23.366;2023-06-10T09:40:59;5.13;;;3.17;;
66593;SDS011;53450;42.584;23.366;2023-06-10T09:43:44;6.55;;;3.40;;
66593;SDS011;53450;42.584;23.366;2023-06-10T09:46:17;6.68;;;5.10;;
66593;SDS011;53450;42.584;23.366;2023-06-10T09:48:44;5.10;;;2.80;;
66593;SDS011;53450;42.584;23.366;2023-06-10T09:51:12;49.05;;;4.35;;
66593;SDS011;53450;42.584;23.366;2023-06-10T09:53:39;15.75;;;3.42;;
66593;SDS011;53450;42.584;23.366;2023-06-10T09:56:05;4.45;;;2.67;;
66593;SDS011;53450;42.584;23.366;2023-06-10T09:58:39;3.70;;;2.92;;
66593;SDS011;53450;42.584;23.366;2023-06-10T10:01:09;6.65;;;2.85;;
66593;SDS011;53450;42.584;23.366;2023-06-10T10:03:51;6.45;;;3.03;;
66593;SDS011;53450;42.584;23.366;2023-06-10T10:06:18;3.65;;;2.80;;
66593;SDS011;53450;42.584;23.366;2023-06-10T10:08:45;17.67;;;4.53;;
66593;SDS011;53450;42.584;23.366;2023-06-10T10:11:13;6.00;;;3.58;;
66593;SDS011;53450;42.584;23.366;2023-06-10T10:13:41;5.97;;;2.95;;
66593;SDS011;53450;42.584;23.366;2023-06-10T10:16:11;4.35;;;3.08;;
66593;SDS011;53450;42.584;23.366;2023-06-10T10:18:41;4.35;;;3.33;;
66593;SDS011;53450;42.584;23.366;2023-06-10T10:21:40;3.65;;;3.00;;
66593;SDS011;53450;42.584;23.366;2023-06-10T10:24:18;12.30;;;4.10;;
66593;SDS011;53450;42.584;23.366;2023-06-10T10:26:47;13.35;;;3.05;;
66593;SDS011;53450;42.584;23.366;2023-06-10T10:29:15;26.10;;;4.80;;
66593;SDS011;53450;42.584;23.366;2023-06-10T10:31:50;7.20;;;2.95;;
66593;SDS011;53450;42.584;23.366;2023-06-10T10:34:23;6.78;;;2.85;;
66593;SDS011;53450;42.584;23.366;2023-06-10T10:36:51;6.50;;;3.38;;
66593;SDS011;53450;42.584;23.366;2023-06-10T10:39:17;5.93;;;3.22;;
66593;SDS011;53450;42.584;23.366;2023-06-10T10:41:44;4.07;;;3.20;;
66593;SDS011;53450;42.584;23.366;2023-06-10T10:44:10;3.85;;;3.40;;
66593;SDS011;53450;42.584;23.366;2023-06-10T10:46:49;4.05;;;3.58;;
66593;SDS011;53450;42.584;23.366;2023-06-10T10:49:16;5.85;;;3.28;;
66593;SDS011;53450;42.584;23.366;2023-06-10T10:51:58;7.43;;;2.80;;
66593;SDS011;53450;42.584;23.366;2023-06-10T10:54:52;4.07;;;2.53;;
66593;SDS011;53450;42.584;23.366;2023-06-10T10:57:53;6.88;;;2.38;;
66593;SDS011;53450;42.584;23.366;2023-06-10T11:00:29;4.70;;;2.58;;
66593;SDS011;53450;42.584;23.366;2023-06-10T11:08:07;3.60;;;2.65;;
66593;SDS011;53450;42.584;23.366;2023-06-10T11:10:34;5.82;;;2.90;;
66593;SDS011;53450;42.584;23.366;2023-06-10T11:13:12;3.40;;;2.58;;
66593;SDS011;53450;42.584;23.366;2023-06-10T11:15:45;6.32;;;2.75;;
66593;SDS011;53450;42.584;23.366;2023-06-10T11:25:51;3.33;;;2.30;;
66593;SDS011;53450;42.584;23.366;2023-06-10T11:28:17;2.55;;;2.35;;
66593;SDS011;53450;42.584;23.366;2023-06-10T11:30:44;6.53;;;2.25;;
66593;SDS011;53450;42.584;23.366;2023-06-10T11:33:14;2.58;;;2.28;;
66593;SDS011;53450;42.584;23.366;2023-06-10T11:35:42;2.60;;;2.40;;
66593;SDS011;53450;42.584;23.366;2023-06-10T11:38:08;3.17;;;2.28;;
66593;SDS011;53450;42.584;23.366;2023-06-10T11:40:34;5.28;;;2.65;;
66593;SDS011;53450;42.584;23.366;2023-06-10T11:43:01;4.20;;;2.75;;
66593;SDS011;53450;42.584;23.366;2023-06-10T11:45:29;7.22;;;3.17;;
66593;SDS011;53450;42.584;23.366;2023-06-10T11:47:55;3.55;;;2.40;;
66593;SDS011;53450;42.584;23.366;2023-06-10T11:50:33;5.28;;;2.60;;
66593;SDS011;53450;42.584;23.366;2023-06-10T11:53:24;3.88;;;2.85;;
66593;SDS011;53450;42.584;23.366;2023-06-10T11:56:22;5.05;;;2.83;;
66593;SDS011;53450;42.584;23.366;2023-06-10T11:59:07;36.10;;;4.45;;
66593;SDS011;53450;42.584;23.366;2023-06-10T12:01:33;3.83;;;3.17;;
66593;SDS011;53450;42.584;23.366;2023-06-10T12:04:05;13.38;;;3.80;;
66593;SDS011;53450;42.584;23.366;2023-06-10T12:06:59;6.40;;;3.05;;
66593;SDS011;53450;42.584;23.366;2023-06-10T12:09:26;3.03;;;2.70;;
66593;SDS011;53450;42.584;23.366;2023-06-10T12:12:03;2.97;;;2.50;;
66593;SDS011;53450;42.584;23.366;2023-06-10T12:17:23;3.00;;;2.70;;
66593;SDS011;53450;42.584;23.366;2023-06-10T12:19:55;6.65;;;2.85;;
66593;SDS011;53450;42.584;23.366;2023-06-10T12:22:21;3.22;;;2.80;;
66593;SDS011;53450;42.584;23.366;2023-06-10T12:24:58;3.67;;;2.70;;
66593;SDS011;53450;42.584;23.366;2023-06-10T12:27:31;4.05;;;2.85;;
66593;SDS011;53450;42.584;23.366;2023-06-10T12:29:57;2.97;;;2.65;;
66593;SDS011;53450;42.584;23.366;2023-06-10T12:35:04;5.75;;;2.67;;
66593;SDS011;53450;42.584;23.366;2023-06-10T12:37:30;3.08;;;2.67;;
66593;SDS011;53450;42.584;23.366;2023-06-10T12:40:00;5.35;;;2.60;;
66593;SDS011;53450;42.584;23.366;2023-06-10T12:42:26;12.48;;;2.92;;
66593;SDS011;53450;42.584;23.366;2023-06-10T12:45:25;28.27;;;3.65;;
66593;SDS011;53450;42.584;23.366;2023-06-10T12:48:21;3.63;;;2.85;;
66593;SDS011;53450;42.584;23.366;2023-06-10T12:50:52;3.85;;;2.85;;
66593;SDS011;53450;42.584;23.366;2023-06-10T12:53:22;14.00;;;3.00;;
66593;SDS011;53450;42.584;23.366;2023-06-10T12:55:49;5.75;;;2.72;;
66593;SDS011;53450;42.584;23.366;2023-06-10T12:58:41;3.25;;;2.38;;
66593;SDS011;53450;42.584;23.366;2023-06-10T13:01:31;2.90;;;2.60;;
66593;SDS011;53450;42.584;23.366;2023-06-10T13:03:58;4.53;;;2.97;;
66593;SDS011;53450;42.584;23.366;2023-06-10T13:06:23;4.70;;;2.67;;
66593;SDS011;53450;42.584;23.366;2023-06-10T13:08:49;2.63;;;2.42;;
66593;SDS011;53450;42.584;23.366;2023-06-10T13:11:16;5.28;;;2.85;;
66593;SDS011;53450;42.584;23.366;2023-06-10T13:13:41;3.00;;;2.70;;
66593;SDS011;53450;42.584;23.366;2023-06-10T13:16:07;5.55;;;2.65;;
66593;SDS011;53450;42.584;23.366;2023-06-10T13:18:33;5.40;;;3.28;;
66593;SDS011;53450;42.584;23.366;2023-06-10T13:21:05;7.03;;;3.08;;
66593;SDS011;53450;42.584;23.366;2023-06-10T13:23:31;5.95;;;3.17;;
66593;SDS011;53450;42.584;23.366;2023-06-10T13:25:57;3.45;;;2.58;;
66593;SDS011;53450;42.584;23.366;2023-06-10T13:28:23;3.75;;;3.00;;
66593;SDS011;53450;42.584;23.366;2023-06-10T13:30:48;5.80;;;3.13;;
66593;SDS011;53450;42.584;23.366;2023-06-10T13:33:14;3.53;;;2.80;;
66593;SDS011;53450;42.584;23.366;2023-06-10T13:35:40;8.70;;;3.65;;
66593;SDS011;53450;42.584;23.366;2023-06-10T13:38:06;5.20;;;2.80;;
66593;SDS011;53450;42.584;23.366;2023-06-10T13:40:32;14.82;;;4.53;;
66593;SDS011;53450;42.584;23.366;2023-06-10T13:42:58;15.05;;;4.30;;
66593;SDS011;53450;42.584;23.366;2023-06-10T13:45:23;11.65;;;4.45;;
66593;SDS011;53450;42.584;23.366;2023-06-10T13:47:50;12.02;;;3.92;;
66593;SDS011;53450;42.584;23.366;2023-06-10T13:50:15;13.50;;;4.65;;
66593;SDS011;53450;42.584;23.366;2023-06-10T13:52:41;10.98;;;4.82;;
66593;SDS011;53450;42.584;23.366;2023-06-10T13:55:07;16.13;;;5.32;;
66593;SDS011;53450;42.584;23.366;2023-06-10T13:57:33;12.38;;;5.13;;
66593;SDS011;53450;42.584;23.366;2023-06-10T13:59:58;7.85;;;4.43;;
66593;SDS011;53450;42.584;23.366;2023-06-10T14:02:24;11.88;;;5.00;;
66593;SDS011;53450;42.584;23.366;2023-06-10T14:04:50;10.63;;;4.40;;
66593;SDS011;53450;42.584;23.366;2023-06-10T14:07:16;5.00;;;4.47;;
66593;SDS011;53450;42.584;23.366;2023-06-10T14:09:42;6.72;;;4.40;;
66593;SDS011;53450;42.584;23.366;2023-06-10T14:12:10;7.60;;;4.40;;
66593;SDS011;53450;42.584;23.366;2023-06-10T14:14:37;4.90;;;4.18;;
66593;SDS011;53450;42.584;23.366;2023-06-10T14:17:03;8.18;;;5.28;;
66593;SDS011;53450;42.584;23.366;2023-06-10T14:19:30;6.95;;;4.60;;
66593;SDS011;53450;42.584;23.366;2023-06-10T14:21:55;13.88;;;5.43;;
66593;SDS011;53450;42.584;23.366;2023-06-10T14:24:21;15.32;;;6.72;;
66593;SDS011;53450;42.584;23.366;2023-06-10T14:26:46;11.88;;;6.57;;
66593;SDS011;53450;42.584;23.366;2023-06-10T14:29:12;9.48;;;5.20;;
66593;SDS011;53450;42.584;23.366;2023-06-10T14:32:07;8.52;;;6.32;;
66593;SDS011;53450;42.584;23.366;2023-06-10T14:34:57;9.70;;;5.75;;
66593;SDS011;53450;42.584;23.366;2023-06-10T14:37:23;16.00;;;7.63;;
66593;SDS011;53450;42.584;23.366;2023-06-10T14:39:49;14.43;;;6.15;;
66593;SDS011;53450;42.584;23.366;2023-06-10T14:42:14;12.98;;;6.10;;
66593;SDS011;53450;42.584;23.366;2023-06-10T14:44:40;13.93;;;6.22;;
66593;SDS011;53450;42.584;23.366;2023-06-10T14:47:05;12.82;;;6.60;;
66593;SDS011;53450;42.584;23.366;2023-06-10T14:49:31;14.60;;;7.10;;
66593;SDS011;53450;42.584;23.366;2023-06-10T14:52:21;11.80;;;5.63;;
66593;SDS011;53450;42.584;23.366;2023-06-10T14:55:12;12.70;;;5.78;;
66593;SDS011;53450;42.584;23.366;2023-06-10T14:57:42;10.90;;;5.35;;
66593;SDS011;53450;42.584;23.366;2023-06-10T15:00:07;12.80;;;5.57;;
66593;SDS011;53450;42.584;23.366;2023-06-10T15:02:34;6.85;;;5.45;;
66593;SDS011;53450;42.584;23.366;2023-06-10T15:04:59;10.57;;;5.45;;